Terminal Aerodrome Forecast
Issued by NWS Memphis, TN

Home | Current Version | Previous Version | Text Only | Print | Product List | Glossary On
Versions: 1 2 3 4 5 6 7 8 9 10 11 12 13 14 15 16
859
FTUS44 KMEG 272032 AAA
TAFJBR
TAF AMD
KJBR 272032Z 2721/2818 15010KT P6SM BKN015
     FM272200 15010KT P6SM SCT015 BKN150
     FM280000 15008KT P6SM SCT060 BKN150
     FM280400 17008KT P6SM VCSH SCT015 OVC035
      TEMPO 2804/2807 BKN015
     FM280700 19010KT P6SM VCTS BKN008CB BKN015
      TEMPO 2808/2812 4SM -TSRA BR OVC006CB
     FM281700 21012G20KT P6SM SCT008 BKN020 OVC040=

USA.gov is the U.S. government's official web portal to all federal, state and local government web resources and services.